Time;durP1;ratioP1;P1;durP2;ratioP2;P2;SDS_P1;SDS_P2;PMS_P1;PMS_P2;Temp;Humidity;BMP_temperature;BMP_pressure;BME280_temperature;BME280_humidity;BME280_pressure;Samples;Min_cycle;Max_cycle;Signal;HPM_P1;HPM_P2
2022/09/01 00:00:48;;;;;;;15.00;8.60;;;;;;;;;;5022691;28;20029;-85
2022/09/01 00:03:14;;;;;;;11.65;7.97;;;;;;;;;;5024242;28;20509;-86
2022/09/01 00:05:41;;;;;;;9.43;7.38;;;;;;;;;;5004513;28;20049;-86
2022/09/01 00:08:07;;;;;;;10.35;7.60;;;;;;;;;;5025707;28;20105;-87
2022/09/01 00:10:33;;;;;;;11.32;6.93;;;;;;;;;;5032829;28;20029;-87
2022/09/01 00:12:59;;;;;;;11.35;8.15;;;;;;;;;;5017540;28;20093;-86
2022/09/01 00:15:25;;;;;;;12.63;8.30;;;;;;;;;;5023254;28;20184;-87
2022/09/01 00:17:53;;;;;;;11.93;8.95;;;;;;;;;;5033631;28;20469;-88
2022/09/01 00:20:19;;;;;;;11.30;9.55;;;;;;;;;;5026800;28;20022;-87
2022/09/01 00:22:46;;;;;;;13.38;10.25;;;;;;;;;;5025870;28;20029;-89
2022/09/01 00:25:12;;;;;;;15.65;10.32;;;;;;;;;;5025117;28;20032;-88
2022/09/01 00:27:38;;;;;;;13.05;9.60;;;;;;;;;;5022210;28;20053;-88
2022/09/01 00:30:05;;;;;;;12.32;9.88;;;;;;;;;;5020966;28;20052;-90
2022/09/01 00:32:31;;;;;;;11.63;9.10;;;;;;;;;;5035689;28;20397;-85
2022/09/01 00:34:57;;;;;;;14.00;10.07;;;;;;;;;;5008327;28;20376;-91
2022/09/01 00:37:26;;;;;;;11.98;9.80;;;;;;;;;;5016976;28;20065;-89
2022/09/01 00:39:52;;;;;;;12.73;10.00;;;;;;;;;;5028861;28;20052;-88
2022/09/01 00:42:18;;;;;;;14.15;10.38;;;;;;;;;;5035765;28;20038;-89
2022/09/01 00:44:44;;;;;;;10.73;9.32;;;;;;;;;;5032269;28;20040;-84
2022/09/01 00:47:10;;;;;;;16.20;9.73;;;;;;;;;;5031741;28;20486;-82
2022/09/01 00:49:39;;;;;;;11.70;10.00;;;;;;;;;;5029098;28;20165;-88
2022/09/01 00:52:14;;;;;;;11.82;9.40;;;;;;;;;;5030707;28;20041;-81
2022/09/01 00:54:43;;;;;;;12.73;9.75;;;;;;;;;;5015732;28;20030;-86
2022/09/01 01:00:20;;;;;;;12.55;9.57;;;;;;;;;;5004638;23;20050;-85
2022/09/01 01:02:48;;;;;;;12.73;9.50;;;;;;;;;;4976982;28;20042;-76
2022/09/01 01:05:14;;;;;;;11.55;9.00;;;;;;;;;;4987799;28;20014;-89
2022/09/01 01:07:43;;;;;;;10.70;9.48;;;;;;;;;;5006147;28;20076;-85
2022/09/01 01:10:13;;;;;;;11.95;9.73;;;;;;;;;;4999605;28;20379;-83
2022/09/01 01:12:39;;;;;;;15.15;9.30;;;;;;;;;;4997240;28;20038;-82
2022/09/01 01:15:09;;;;;;;12.10;9.15;;;;;;;;;;4990815;28;20026;-81
2022/09/01 01:17:35;;;;;;;12.85;9.70;;;;;;;;;;4992238;28;20034;-88
2022/09/01 01:23:07;;;;;;;12.48;9.60;;;;;;;;;;5007285;28;20057;-87
2022/09/01 01:25:47;;;;;;;13.65;9.32;;;;;;;;;;5003956;28;20022;-90
2022/09/01 01:28:18;;;;;;;13.32;9.35;;;;;;;;;;5005267;28;20038;-82
2022/09/01 01:30:49;;;;;;;12.60;9.23;;;;;;;;;;4979392;28;20023;-84
2022/09/01 01:33:18;;;;;;;10.70;9.20;;;;;;;;;;5001761;28;20133;-87
2022/09/01 01:35:45;;;;;;;11.85;9.40;;;;;;;;;;5002177;28;20104;-84
2022/09/01 01:38:13;;;;;;;12.55;9.65;;;;;;;;;;5001729;28;20491;-82
2022/09/01 01:40:40;;;;;;;11.63;9.48;;;;;;;;;;5010112;28;20392;-86
2022/09/01 01:43:06;;;;;;;11.27;9.38;;;;;;;;;;5004290;28;20035;-88
2022/09/01 01:45:33;;;;;;;12.05;9.32;;;;;;;;;;5008154;28;20026;-87
2022/09/01 01:48:07;;;;;;;10.98;9.57;;;;;;;;;;5004716;28;20034;-84
2022/09/01 01:50:36;;;;;;;12.02;9.90;;;;;;;;;;4980966;28;20022;-87
2022/09/01 01:53:07;;;;;;;14.00;9.98;;;;;;;;;;4982676;28;20436;-87
2022/09/01 01:55:33;;;;;;;14.00;9.45;;;;;;;;;;5006461;28;20120;-88
2022/09/01 01:57:59;;;;;;;13.93;9.65;;;;;;;;;;4996967;28;20110;-88
2022/09/01 02:00:33;;;;;;;11.63;9.10;;;;;;;;;;4974265;28;20051;-86
2022/09/01 02:03:00;;;;;;;12.32;9.60;;;;;;;;;;4987840;28;20065;-81
2022/09/01 02:05:28;;;;;;;12.43;10.02;;;;;;;;;;4974913;28;20029;-87
2022/09/01 02:07:58;;;;;;;13.63;9.63;;;;;;;;;;4975621;28;20423;-87
2022/09/01 02:10:30;;;;;;;13.20;9.60;;;;;;;;;;4980998;28;20023;-86
2022/09/01 02:13:02;;;;;;;13.50;9.52;;;;;;;;;;4980888;28;20114;-87
2022/09/01 02:15:33;;;;;;;16.73;10.90;;;;;;;;;;4990259;28;20082;-84
2022/09/01 02:18:00;;;;;;;14.43;10.18;;;;;;;;;;4979888;28;20057;-90
2022/09/01 02:20:31;;;;;;;12.93;10.52;;;;;;;;;;4975756;28;20019;-89
2022/09/01 02:23:09;;;;;;;13.50;10.05;;;;;;;;;;4987473;28;20085;-89
2022/09/01 02:25:35;;;;;;;14.70;10.75;;;;;;;;;;4986429;28;20027;-86
2022/09/01 02:28:03;;;;;;;11.05;8.93;;;;;;;;;;4985760;28;20053;-82
2022/09/01 02:30:33;;;;;;;13.70;9.43;;;;;;;;;;4989752;28;20023;-83
2022/09/01 02:33:00;;;;;;;15.95;9.90;;;;;;;;;;4981795;28;20037;-89
2022/09/01 02:35:36;;;;;;;12.88;9.82;;;;;;;;;;4982249;28;20094;-87
2022/09/01 02:38:03;;;;;;;13.10;10.23;;;;;;;;;;4974209;28;20066;-88
2022/09/01 02:40:33;;;;;;;12.07;9.48;;;;;;;;;;4985402;28;20495;-89
2022/09/01 02:43:00;;;;;;;14.88;9.55;;;;;;;;;;4986827;28;20051;-89
2022/09/01 02:45:28;;;;;;;11.93;9.55;;;;;;;;;;4986137;28;20392;-89
2022/09/01 02:47:56;;;;;;;13.10;10.18;;;;;;;;;;4974931;28;20495;-83
2022/09/01 02:50:23;;;;;;;12.55;9.32;;;;;;;;;;4987764;28;20146;-87
2022/09/01 02:52:58;;;;;;;14.73;10.15;;;;;;;;;;4974485;28;20019;-89
2022/09/01 02:55:24;;;;;;;13.90;10.55;;;;;;;;;;4987253;28;20030;-86
2022/09/01 02:57:54;;;;;;;14.98;10.82;;;;;;;;;;4974935;28;20026;-84
2022/09/01 03:00:32;;;;;;;14.07;10.45;;;;;;;;;;4988090;28;20049;-84
2022/09/01 03:03:00;;;;;;;11.13;9.82;;;;;;;;;;4998733;28;20492;-80
2022/09/01 03:05:31;;;;;;;15.82;10.10;;;;;;;;;;5002477;28;20097;-88
2022/09/01 03:08:01;;;;;;;13.05;10.48;;;;;;;;;;4997860;28;20042;-87
2022/09/01 03:10:32;;;;;;;14.05;10.73;;;;;;;;;;4999586;28;20379;-86
2022/09/01 03:13:07;;;;;;;13.15;10.43;;;;;;;;;;4998034;28;20033;-86
2022/09/01 03:15:35;;;;;;;14.13;10.50;;;;;;;;;;4980278;28;20114;-84
2022/09/01 03:18:01;;;;;;;14.77;10.27;;;;;;;;;;4993593;28;20034;-84
2022/09/01 03:20:29;;;;;;;13.88;10.57;;;;;;;;;;4987025;28;20019;-84
2022/09/01 03:22:56;;;;;;;13.75;10.70;;;;;;;;;;4993902;28;20551;-83
2022/09/01 03:25:24;;;;;;;14.07;11.10;;;;;;;;;;4994743;28;20026;-86
2022/09/01 03:27:52;;;;;;;13.32;10.07;;;;;;;;;;4992454;28;20030;-83
2022/09/01 03:30:22;;;;;;;14.13;10.63;;;;;;;;;;4995104;28;20019;-83
2022/09/01 03:33:15;;;;;;;13.32;10.73;;;;;;;;;;4988440;28;20023;-83
2022/09/01 03:36:00;;;;;;;15.73;11.38;;;;;;;;;;4993760;28;20034;-87
2022/09/01 03:38:27;;;;;;;13.70;11.13;;;;;;;;;;5003853;28;20026;-82
2022/09/01 03:40:58;;;;;;;14.38;11.60;;;;;;;;;;4990250;28;20014;-85
2022/09/01 03:43:26;;;;;;;14.25;11.60;;;;;;;;;;4979944;28;20472;-88
2022/09/01 03:45:54;;;;;;;15.35;12.05;;;;;;;;;;4974119;28;20093;-87
2022/09/01 03:48:21;;;;;;;15.18;11.90;;;;;;;;;;4985738;28;20030;-82
2022/09/01 03:50:49;;;;;;;17.58;12.82;;;;;;;;;;4995085;28;20042;-78
2022/09/01 03:53:18;;;;;;;16.88;12.13;;;;;;;;;;4987297;28;20551;-86
2022/09/01 03:55:46;;;;;;;17.63;12.48;;;;;;;;;;4980592;28;20118;-78
2022/09/01 03:58:13;;;;;;;14.15;11.60;;;;;;;;;;4991496;28;20051;-84
2022/09/01 04:00:42;;;;;;;14.82;11.95;;;;;;;;;;5001467;28;20038;-82
2022/09/01 04:03:09;;;;;;;15.95;12.18;;;;;;;;;;4995944;28;20035;-84
2022/09/01 04:05:36;;;;;;;13.88;11.68;;;;;;;;;;4994095;28;20473;-77
2022/09/01 04:08:10;;;;;;;17.00;12.25;;;;;;;;;;4998996;28;20018;-89
2022/09/01 04:10:46;;;;;;;12.80;10.68;;;;;;;;;;4970274;28;20486;-86
2022/09/01 04:13:13;;;;;;;11.85;6.45;;;;;;;;;;4973428;28;20113;-87
2022/09/01 04:15:39;;;;;;;6.63;5.40;;;;;;;;;;4981604;28;20041;-85
2022/09/01 04:18:18;;;;;;;6.53;4.82;;;;;;;;;;4998901;28;20034;-76
2022/09/01 04:20:48;;;;;;;6.28;4.60;;;;;;;;;;4980033;28;20392;-72
2022/09/01 04:23:32;;;;;;;5.18;4.00;;;;;;;;;;4985124;28;20397;-78
2022/09/01 04:26:25;;;;;;;6.00;3.40;;;;;;;;;;4998676;28;20550;-77
2022/09/01 04:28:56;;;;;;;6.13;3.20;;;;;;;;;;4923891;29;20445;-75
2022/09/01 04:31:22;;;;;;;8.13;3.70;;;;;;;;;;4924240;29;20115;-77
2022/09/01 04:33:53;;;;;;;4.30;2.95;;;;;;;;;;4925641;29;20466;-77
2022/09/01 04:36:26;;;;;;;6.22;3.40;;;;;;;;;;4921586;29;20191;-75
2022/09/01 04:39:10;;;;;;;5.22;3.40;;;;;;;;;;4917703;29;20031;-71
2022/09/01 04:41:55;;;;;;;5.32;3.35;;;;;;;;;;4920273;29;20048;-70
2022/09/01 04:44:21;;;;;;;7.55;3.45;;;;;;;;;;4914626;29;20162;-71
2022/09/01 04:46:49;;;;;;;4.38;2.88;;;;;;;;;;4920880;29;20092;-70
2022/09/01 04:49:18;;;;;;;5.28;2.95;;;;;;;;;;4934634;29;20039;-70
2022/09/01 04:51:45;;;;;;;5.50;3.25;;;;;;;;;;4932979;29;20247;-71
2022/09/01 04:54:13;;;;;;;4.80;3.17;;;;;;;;;;4934042;29;20111;-72
2022/09/01 04:56:40;;;;;;;4.95;2.90;;;;;;;;;;4920455;29;20020;-71
2022/09/01 04:59:07;;;;;;;6.32;2.90;;;;;;;;;;4926199;29;20056;-79
2022/09/01 05:01:42;;;;;;;13.02;3.15;;;;;;;;;;4916109;29;20073;-76
2022/09/01 05:04:16;;;;;;;6.97;2.60;;;;;;;;;;4910794;29;20049;-73
2022/09/01 05:06:43;;;;;;;5.47;3.08;;;;;;;;;;4974751;28;20104;-77
2022/09/01 05:09:10;;;;;;;7.93;2.42;;;;;;;;;;4986347;28;20026;-86
2022/09/01 05:11:37;;;;;;;6.07;2.75;;;;;;;;;;4997185;28;20057;-85
2022/09/01 05:14:05;;;;;;;4.05;2.40;;;;;;;;;;4988827;28;20039;-86
2022/09/01 05:16:32;;;;;;;7.55;2.70;;;;;;;;;;4985548;28;20037;-85
2022/09/01 05:19:00;;;;;;;9.38;2.70;;;;;;;;;;4991464;28;20030;-72
2022/09/01 05:21:28;;;;;;;9.82;3.58;;;;;;;;;;4972593;28;20038;-73
2022/09/01 05:23:55;;;;;;;7.15;2.60;;;;;;;;;;4990519;28;20287;-80
2022/09/01 05:26:23;;;;;;;7.07;2.50;;;;;;;;;;4990167;28;20117;-78
2022/09/01 05:28:54;;;;;;;6.78;2.53;;;;;;;;;;4982746;28;20045;-76
2022/09/01 05:31:21;;;;;;;6.88;2.72;;;;;;;;;;4975997;28;20389;-78
2022/09/01 05:33:49;;;;;;;10.38;3.10;;;;;;;;;;4990919;28;20034;-77
2022/09/01 05:36:19;;;;;;;14.10;3.47;;;;;;;;;;4976222;28;20509;-76
2022/09/01 05:38:46;;;;;;;10.05;3.30;;;;;;;;;;4981620;28;20398;-71
2022/09/01 05:41:13;;;;;;;10.65;3.53;;;;;;;;;;4997068;28;20038;-73
2022/09/01 05:43:49;;;;;;;11.95;3.97;;;;;;;;;;4987833;28;20389;-79
2022/09/01 05:46:19;;;;;;;8.63;3.03;;;;;;;;;;4995914;28;20031;-77
2022/09/01 05:48:52;;;;;;;6.88;3.40;;;;;;;;;;4992829;28;20015;-79
2022/09/01 05:51:26;;;;;;;10.52;3.35;;;;;;;;;;4995788;28;20090;-79
2022/09/01 05:53:57;;;;;;;9.45;3.50;;;;;;;;;;4972252;28;20480;-77
2022/09/01 05:56:25;;;;;;;6.85;3.42;;;;;;;;;;4979903;28;20027;-75
2022/09/01 05:58:51;;;;;;;7.75;3.80;;;;;;;;;;4979327;28;20129;-76
2022/09/01 06:01:25;;;;;;;6.82;3.67;;;;;;;;;;4975870;28;20031;-75
2022/09/01 06:03:53;;;;;;;;;;;;;;;;;;4984090;28;20476;-76
2022/09/01 06:06:23;;;;;;;10.35;3.80;;;;;;;;;;4978662;28;19918;-76
2022/09/01 06:08:49;;;;;;;7.60;4.05;;;;;;;;;;4987688;28;20037;-77
2022/09/01 06:11:18;;;;;;;8.40;3.78;;;;;;;;;;4976874;28;20121;-74
2022/09/01 06:13:46;;;;;;;6.75;3.63;;;;;;;;;;4979344;28;20082;-75
2022/09/01 06:16:15;;;;;;;5.72;3.50;;;;;;;;;;4988074;28;20029;-76
2022/09/01 06:18:42;;;;;;;7.47;4.50;;;;;;;;;;4989074;28;20022;-76
2022/09/01 06:21:13;;;;;;;7.00;3.85;;;;;;;;;;4995168;28;20054;-78
2022/09/01 06:23:39;;;;;;;6.32;3.42;;;;;;;;;;4996315;28;20062;-76
2022/09/01 06:26:11;;;;;;;9.68;3.97;;;;;;;;;;4986368;28;20038;-78
2022/09/01 06:28:39;;;;;;;5.85;3.17;;;;;;;;;;4983740;28;20030;-78
2022/09/01 06:31:08;;;;;;;4.65;3.22;;;;;;;;;;4983899;28;20155;-77
2022/09/01 06:33:34;;;;;;;6.88;3.65;;;;;;;;;;4989615;28;20027;-78
2022/09/01 06:36:02;;;;;;;5.65;3.38;;;;;;;;;;4969746;28;20500;-75
2022/09/01 06:38:29;;;;;;;6.25;3.65;;;;;;;;;;4984109;28;20034;-75
2022/09/01 06:41:03;;;;;;;8.23;3.60;;;;;;;;;;4978191;28;20026;-74
2022/09/01 06:43:29;;;;;;;12.82;4.45;;;;;;;;;;4981804;28;20038;-76
2022/09/01 06:45:56;;;;;;;8.95;4.45;;;;;;;;;;4984587;28;20034;-75
2022/09/01 06:48:22;;;;;;;6.13;3.95;;;;;;;;;;4977903;28;20033;-75
2022/09/01 06:50:48;;;;;;;8.73;4.40;;;;;;;;;;4980465;28;20078;-76
2022/09/01 06:53:17;;;;;;;10.52;4.50;;;;;;;;;;4977663;28;20030;-78
2022/09/01 06:55:45;;;;;;;8.02;4.75;;;;;;;;;;4990251;28;20019;-78
2022/09/01 06:58:14;;;;;;;9.27;4.78;;;;;;;;;;4986286;28;20031;-76
2022/09/01 07:00:41;;;;;;;7.00;4.13;;;;;;;;;;4977000;28;20409;-76
2022/09/01 07:03:12;;;;;;;5.57;3.65;;;;;;;;;;4984350;28;20073;-74
2022/09/01 07:05:43;;;;;;;8.57;3.30;;;;;;;;;;4985755;28;20023;-76
2022/09/01 07:08:12;;;;;;;16.40;3.30;;;;;;;;;;4985733;28;20100;-79
2022/09/01 07:10:56;;;;;;;4.28;3.00;;;;;;;;;;4963043;28;20473;-76
2022/09/01 07:13:24;;;;;;;5.80;3.33;;;;;;;;;;4986610;28;20065;-76
2022/09/01 07:15:51;;;;;;;6.78;3.40;;;;;;;;;;4982676;28;20512;-75
2022/09/01 07:18:21;;;;;;;5.15;3.05;;;;;;;;;;4979460;28;20062;-77
2022/09/01 07:20:51;;;;;;;5.25;2.97;;;;;;;;;;4982035;28;20085;-79
2022/09/01 07:23:19;;;;;;;5.57;3.40;;;;;;;;;;4982342;28;20043;-75
2022/09/01 07:25:46;;;;;;;4.20;2.85;;;;;;;;;;4988322;28;20054;-76
2022/09/01 07:28:15;;;;;;;7.03;3.22;;;;;;;;;;4979257;28;20023;-76
2022/09/01 07:30:48;;;;;;;7.88;3.67;;;;;;;;;;4981233;28;20061;-76
2022/09/01 07:33:19;;;;;;;7.15;3.15;;;;;;;;;;4975998;28;20026;-75
2022/09/01 07:35:46;;;;;;;7.57;3.30;;;;;;;;;;4989399;28;20019;-75
2022/09/01 07:38:21;;;;;;;7.72;3.13;;;;;;;;;;4978209;28;20049;-79
2022/09/01 07:40:51;;;;;;;7.35;3.33;;;;;;;;;;4972184;28;20099;-69
2022/09/01 07:43:23;;;;;;;8.38;3.33;;;;;;;;;;4991450;28;20047;-70
2022/09/01 07:45:50;;;;;;;6.90;3.20;;;;;;;;;;4988988;28;20038;-73
2022/09/01 07:48:21;;;;;;;5.03;2.83;;;;;;;;;;4991620;28;20679;-76
2022/09/01 07:50:49;;;;;;;7.00;3.63;;;;;;;;;;4979548;28;20179;-76
2022/09/01 07:53:17;;;;;;;7.43;3.15;;;;;;;;;;4982514;28;20070;-76
2022/09/01 07:55:44;;;;;;;7.30;3.80;;;;;;;;;;5002267;28;20054;-77
2022/09/01 07:58:10;;;;;;;7.60;3.92;;;;;;;;;;5007268;28;20026;-78
2022/09/01 08:00:38;;;;;;;6.07;3.35;;;;;;;;;;5007883;28;20090;-77
2022/09/01 08:03:04;;;;;;;5.78;3.22;;;;;;;;;;4990464;28;20041;-77
2022/09/01 08:05:31;;;;;;;6.55;3.95;;;;;;;;;;4983979;28;20030;-76
2022/09/01 08:07:57;;;;;;;8.27;3.58;;;;;;;;;;4985971;28;20042;-77
2022/09/01 08:10:23;;;;;;;4.68;3.30;;;;;;;;;;4980444;28;20034;-76
2022/09/01 08:12:50;;;;;;;7.60;3.97;;;;;;;;;;4982058;28;20023;-78
2022/09/01 08:15:16;;;;;;;6.15;3.05;;;;;;;;;;4976072;28;20077;-75
2022/09/01 08:20:20;;;;;;;5.50;3.08;;;;;;;;;;4951523;28;20043;-85
2022/09/01 08:22:46;;;;;;;6.63;3.45;;;;;;;;;;4948245;28;20512;-86
2022/09/01 08:25:12;;;;;;;6.38;3.88;;;;;;;;;;4937550;29;20430;-84
2022/09/01 08:27:38;;;;;;;6.07;3.00;;;;;;;;;;4954277;28;20091;-85
2022/09/01 08:30:06;;;;;;;4.88;3.20;;;;;;;;;;4959968;28;20033;-81
2022/09/01 08:32:33;;;;;;;7.13;2.83;;;;;;;;;;4941644;29;20094;-76
2022/09/01 08:35:00;;;;;;;4.50;2.95;;;;;;;;;;4958518;28;20030;-75
2022/09/01 08:37:26;;;;;;;7.22;3.45;;;;;;;;;;4957253;28;20035;-78
2022/09/01 08:39:52;;;;;;;9.75;3.90;;;;;;;;;;4954426;28;20023;-73
2022/09/01 08:42:25;;;;;;;5.72;3.45;;;;;;;;;;4966742;28;20038;-80
2022/09/01 08:44:54;;;;;;;11.13;3.78;;;;;;;;;;4968286;28;20046;-80
2022/09/01 08:47:20;;;;;;;5.53;3.03;;;;;;;;;;4956750;28;20098;-80
2022/09/01 08:49:48;;;;;;;6.63;3.17;;;;;;;;;;4955423;28;20031;-76
2022/09/01 08:52:33;;;;;;;5.82;3.10;;;;;;;;;;4955317;28;20057;-74
2022/09/01 08:55:07;;;;;;;5.38;3.03;;;;;;;;;;4965223;28;20469;-79
2022/09/01 08:57:35;;;;;;;5.32;3.47;;;;;;;;;;4955277;28;20156;-72
2022/09/01 09:00:02;;;;;;;6.68;4.03;;;;;;;;;;4958017;28;20028;-75
2022/09/01 09:02:28;;;;;;;6.80;3.67;;;;;;;;;;4968964;28;20027;-82
2022/09/01 09:05:09;;;;;;;8.10;3.88;;;;;;;;;;4963021;28;20029;-70
2022/09/01 09:07:50;;;;;;;7.68;4.13;;;;;;;;;;4961288;28;20031;-69
2022/09/01 09:10:20;;;;;;;5.40;3.72;;;;;;;;;;4959366;28;20474;-69
2022/09/01 09:13:05;;;;;;;6.72;3.60;;;;;;;;;;4966409;28;20034;-76
2022/09/01 09:15:52;;;;;;;9.27;4.00;;;;;;;;;;4948606;28;20094;-77
2022/09/01 09:18:29;;;;;;;6.70;3.58;;;;;;;;;;4958903;28;20045;-75
2022/09/01 09:20:55;;;;;;;9.95;3.72;;;;;;;;;;4988950;28;20022;-77
2022/09/01 09:23:28;;;;;;;8.77;4.20;;;;;;;;;;4952443;28;20043;-74
2022/09/01 09:25:54;;;;;;;7.03;3.90;;;;;;;;;;4954725;28;20122;-74
2022/09/01 09:28:21;;;;;;;5.28;3.78;;;;;;;;;;4971359;28;20034;-76
2022/09/01 09:30:47;;;;;;;10.25;4.40;;;;;;;;;;4978874;28;20449;-76
2022/09/01 09:33:33;;;;;;;12.32;4.55;;;;;;;;;;4978017;28;20030;-75
2022/09/01 09:36:18;;;;;;;8.70;4.70;;;;;;;;;;4969544;28;20031;-73
2022/09/01 09:38:44;;;;;;;9.48;4.32;;;;;;;;;;4960864;28;20038;-71
2022/09/01 09:41:18;;;;;;;7.00;4.53;;;;;;;;;;4955489;28;20050;-77
2022/09/01 09:44:06;;;;;;;31.00;15.82;;;;;;;;;;4971549;28;20039;-76
2022/09/01 09:46:32;;;;;;;8.48;4.30;;;;;;;;;;4974170;28;20436;-73
2022/09/01 09:49:10;;;;;;;9.43;4.57;;;;;;;;;;4972430;28;20039;-73
2022/09/01 09:51:40;;;;;;;10.07;4.40;;;;;;;;;;4974441;28;20031;-83
2022/09/01 09:54:19;;;;;;;9.02;4.35;;;;;;;;;;4976966;28;20114;-82
2022/09/01 09:56:45;;;;;;;6.60;4.40;;;;;;;;;;4970925;28;20030;-73
2022/09/01 09:59:27;;;;;;;9.55;4.05;;;;;;;;;;4971305;28;20027;-71
2022/09/01 10:01:57;;;;;;;10.07;4.03;;;;;;;;;;4971588;28;20026;-73
2022/09/01 10:04:35;;;;;;;5.50;3.70;;;;;;;;;;4985036;28;20042;-72
2022/09/01 10:07:01;;;;;;;8.43;4.03;;;;;;;;;;4972442;28;20522;-73
2022/09/01 10:09:27;;;;;;;12.27;4.40;;;;;;;;;;4982505;28;20400;-75
2022/09/01 10:11:57;;;;;;;7.93;4.00;;;;;;;;;;4981152;28;20500;-73
2022/09/01 10:14:29;;;;;;;7.38;3.90;;;;;;;;;;4980718;28;20037;-72
2022/09/01 10:17:02;;;;;;;6.03;4.30;;;;;;;;;;4979773;28;20043;-73
2022/09/01 10:19:29;;;;;;;8.88;4.63;;;;;;;;;;4978039;28;20125;-74
2022/09/01 10:21:56;;;;;;;7.20;4.70;;;;;;;;;;4971236;28;20504;-74
2022/09/01 10:24:31;;;;;;;5.88;3.97;;;;;;;;;;4968479;28;20043;-74
2022/09/01 10:26:59;;;;;;;7.72;4.07;;;;;;;;;;4971587;28;20023;-71
2022/09/01 10:29:39;;;;;;;8.38;3.72;;;;;;;;;;4969917;28;20408;-70
2022/09/01 10:32:10;;;;;;;6.93;3.90;;;;;;;;;;4966343;28;20449;-72
2022/09/01 10:34:37;;;;;;;5.75;4.10;;;;;;;;;;4961429;28;20065;-79
2022/09/01 10:37:05;;;;;;;8.35;4.07;;;;;;;;;;4944511;28;20134;-74
2022/09/01 10:39:31;;;;;;;7.57;4.28;;;;;;;;;;4958888;28;20102;-74
2022/09/01 10:42:06;;;;;;;8.50;3.97;;;;;;;;;;4966320;28;20481;-71
2022/09/01 10:44:37;;;;;;;7.50;3.88;;;;;;;;;;4960850;28;20034;-74
2022/09/01 10:47:09;;;;;;;8.25;4.10;;;;;;;;;;4958310;28;20087;-76
2022/09/01 10:49:35;;;;;;;10.55;4.30;;;;;;;;;;4946497;28;20042;-76
2022/09/01 10:52:04;;;;;;;9.30;4.45;;;;;;;;;;4961463;28;20055;-85
2022/09/01 10:54:41;;;;;;;6.20;4.10;;;;;;;;;;4950679;28;20086;-82
2022/09/01 10:57:20;;;;;;;6.57;4.38;;;;;;;;;;4962968;28;20445;-72
2022/09/01 10:59:46;;;;;;;6.95;4.40;;;;;;;;;;4952935;28;20027;-78
2022/09/01 11:02:17;;;;;;;6.85;4.43;;;;;;;;;;4977129;28;20034;-80
2022/09/01 11:04:46;;;;;;;7.68;4.35;;;;;;;;;;4956497;28;20046;-76
2022/09/01 11:07:18;;;;;;;9.75;5.38;;;;;;;;;;4954962;28;20101;-75
2022/09/01 11:09:49;;;;;;;6.45;4.88;;;;;;;;;;4974412;28;20508;-86
2022/09/01 11:12:28;;;;;;;6.30;5.05;;;;;;;;;;4956970;28;20035;-87
2022/09/01 11:14:55;;;;;;;7.13;5.03;;;;;;;;;;4956338;28;20525;-82
2022/09/01 11:17:32;;;;;;;9.93;5.60;;;;;;;;;;4956301;28;20031;-83
2022/09/01 11:20:08;;;;;;;8.48;5.07;;;;;;;;;;4955329;28;20053;-72
2022/09/01 11:22:39;;;;;;;9.63;5.68;;;;;;;;;;4978907;28;20507;-79
2022/09/01 11:25:24;;;;;;;7.75;5.82;;;;;;;;;;4969194;28;20141;-71
2022/09/01 11:27:52;;;;;;;8.13;5.68;;;;;;;;;;4969813;28;20050;-70
2022/09/01 11:30:22;;;;;;;8.10;5.68;;;;;;;;;;4978646;28;20026;-70
2022/09/01 11:32:52;;;;;;;8.40;5.10;;;;;;;;;;4967253;28;20026;-72
2022/09/01 11:35:20;;;;;;;9.07;5.35;;;;;;;;;;4980914;28;20031;-75
2022/09/01 11:37:51;;;;;;;8.70;5.45;;;;;;;;;;4975013;28;20050;-77
2022/09/01 11:40:27;;;;;;;6.15;4.82;;;;;;;;;;4989092;28;20058;-72
2022/09/01 11:42:55;;;;;;;9.32;5.57;;;;;;;;;;4978330;28;20066;-77
2022/09/01 11:45:30;;;;;;;9.00;5.20;;;;;;;;;;4973149;28;20018;-76
2022/09/01 11:48:17;;;;;;;8.45;5.47;;;;;;;;;;4971733;28;20354;-75
2022/09/01 11:50:43;;;;;;;10.50;5.45;;;;;;;;;;4958050;28;20049;-72
2022/09/01 11:53:13;;;;;;;6.72;4.70;;;;;;;;;;4964838;28;20053;-77
2022/09/01 11:55:44;;;;;;;8.40;4.70;;;;;;;;;;4985471;28;20049;-75
2022/09/01 11:58:11;;;;;;;7.18;4.72;;;;;;;;;;4976215;28;20023;-76
2022/09/01 12:00:39;;;;;;;8.93;4.60;;;;;;;;;;4977485;28;20085;-76
2022/09/01 12:03:25;;;;;;;8.73;4.60;;;;;;;;;;4988665;28;20484;-72
2022/09/01 12:06:05;;;;;;;10.02;4.53;;;;;;;;;;4970761;28;20061;-71
2022/09/01 12:08:33;;;;;;;7.22;4.65;;;;;;;;;;4978293;28;20054;-72
2022/09/01 12:11:07;;;;;;;5.93;4.40;;;;;;;;;;4982633;28;20110;-72
2022/09/01 12:13:33;;;;;;;7.18;4.53;;;;;;;;;;4974128;28;20437;-76
2022/09/01 12:16:01;;;;;;;6.85;4.10;;;;;;;;;;4957374;28;20033;-73
2022/09/01 12:18:29;;;;;;;6.70;4.30;;;;;;;;;;4976896;28;20067;-75
2022/09/01 12:20:57;;;;;;;9.05;4.78;;;;;;;;;;4964473;28;20031;-74
2022/09/01 12:23:25;;;;;;;9.57;4.40;;;;;;;;;;4975995;28;20031;-76
2022/09/01 12:25:56;;;;;;;7.85;4.28;;;;;;;;;;4975826;28;20473;-74
2022/09/01 12:28:23;;;;;;;18.10;13.05;;;;;;;;;;4972333;28;20059;-75
2022/09/01 12:30:50;;;;;;;14.90;10.75;;;;;;;;;;4975015;28;20023;-74
2022/09/01 12:33:17;;;;;;;10.80;6.53;;;;;;;;;;4980755;28;20396;-82
2022/09/01 12:35:44;;;;;;;6.13;4.18;;;;;;;;;;4958208;28;20046;-74
2022/09/01 12:38:20;;;;;;;8.10;4.50;;;;;;;;;;4973208;28;20031;-75
2022/09/01 12:40:47;;;;;;;5.43;3.92;;;;;;;;;;4974818;28;20038;-80
2022/09/01 12:43:30;;;;;;;7.57;4.15;;;;;;;;;;4964327;28;20118;-74
2022/09/01 12:45:59;;;;;;;4.87;3.60;;;;;;;;;;4968735;28;20059;-72
2022/09/01 12:48:28;;;;;;;6.13;4.03;;;;;;;;;;4979390;28;20090;-74
2022/09/01 12:50:55;;;;;;;5.32;3.78;;;;;;;;;;4972224;28;20034;-72
2022/09/01 12:53:23;;;;;;;8.15;4.15;;;;;;;;;;4983628;28;20488;-81
2022/09/01 12:55:58;;;;;;;6.18;4.05;;;;;;;;;;4992193;28;20385;-82
2022/09/01 12:58:25;;;;;;;10.50;4.10;;;;;;;;;;4988503;28;20033;-73
2022/09/01 13:00:54;;;;;;;7.38;3.58;;;;;;;;;;4990557;28;20428;-74
2022/09/01 13:03:21;;;;;;;6.15;3.97;;;;;;;;;;4988564;28;20142;-80
2022/09/01 13:05:51;;;;;;;6.18;3.78;;;;;;;;;;4978526;28;20026;-83
2022/09/01 13:08:18;;;;;;;5.47;3.92;;;;;;;;;;4975932;28;20030;-81
2022/09/01 13:10:44;;;;;;;8.13;3.83;;;;;;;;;;4979249;28;20041;-76
2022/09/01 13:13:11;;;;;;;6.20;3.60;;;;;;;;;;4959174;28;20113;-80
2022/09/01 13:15:39;;;;;;;6.20;4.05;;;;;;;;;;4980293;28;20026;-81
2022/09/01 13:18:05;;;;;;;8.57;3.78;;;;;;;;;;4978238;28;20030;-82
2022/09/01 13:20:31;;;;;;;7.00;3.42;;;;;;;;;;4973746;28;20555;-73
2022/09/01 13:22:58;;;;;;;6.70;4.10;;;;;;;;;;4959672;28;20041;-81
2022/09/01 13:25:24;;;;;;;4.78;3.50;;;;;;;;;;4983801;28;20064;-80
2022/09/01 13:27:53;;;;;;;6.05;3.80;;;;;;;;;;4994660;28;20128;-80
2022/09/01 13:30:21;;;;;;;7.40;3.60;;;;;;;;;;4979610;28;20054;-80
2022/09/01 13:32:47;;;;;;;9.05;3.95;;;;;;;;;;4986852;28;20022;-76
2022/09/01 13:35:20;;;;;;;6.43;4.07;;;;;;;;;;4957115;28;20030;-79
2022/09/01 13:37:46;;;;;;;5.33;3.70;;;;;;;;;;4973566;28;20026;-78
2022/09/01 13:40:16;;;;;;;7.03;3.88;;;;;;;;;;4971600;28;20027;-79
2022/09/01 13:42:43;;;;;;;16.63;9.85;;;;;;;;;;4966324;28;20031;-76
2022/09/01 13:45:11;;;;;;;10.05;6.03;;;;;;;;;;4970522;28;20027;-87
2022/09/01 13:47:38;;;;;;;5.20;3.70;;;;;;;;;;4955282;28;20061;-83
2022/09/01 13:50:04;;;;;;;7.78;3.88;;;;;;;;;;4954134;28;20499;-84
2022/09/01 13:52:31;;;;;;;6.97;3.90;;;;;;;;;;4977267;28;20102;-82
2022/09/01 13:54:57;;;;;;;7.00;4.30;;;;;;;;;;4958848;28;20038;-83
2022/09/01 13:57:24;;;;;;;7.97;4.25;;;;;;;;;;4954021;28;20515;-81
2022/09/01 13:59:50;;;;;;;8.23;3.97;;;;;;;;;;4974992;28;20038;-82
2022/09/01 14:02:16;;;;;;;8.48;4.13;;;;;;;;;;4962734;28;20034;-80
2022/09/01 14:04:42;;;;;;;7.15;3.78;;;;;;;;;;4966678;28;20050;-85
2022/09/01 14:07:08;;;;;;;8.35;4.13;;;;;;;;;;4965615;28;20081;-81
2022/09/01 14:09:34;;;;;;;8.18;4.03;;;;;;;;;;4959691;28;20101;-85
2022/09/01 14:12:01;;;;;;;7.97;3.88;;;;;;;;;;4962907;28;20169;-79
2022/09/01 14:14:27;;;;;;;7.47;4.30;;;;;;;;;;4987819;28;20026;-89
2022/09/01 14:16:53;;;;;;;5.28;3.97;;;;;;;;;;4973761;28;20370;-83
2022/09/01 14:19:19;;;;;;;7.00;4.40;;;;;;;;;;4984823;28;20125;-83
2022/09/01 14:21:46;;;;;;;6.57;4.00;;;;;;;;;;4977263;28;20035;-78
2022/09/01 14:24:12;;;;;;;10.07;4.22;;;;;;;;;;4976833;28;20088;-76
2022/09/01 14:26:40;;;;;;;8.07;4.38;;;;;;;;;;4970860;28;20023;-80
2022/09/01 14:29:06;;;;;;;10.05;4.43;;;;;;;;;;4975873;28;20362;-79
2022/09/01 14:31:35;;;;;;;9.73;4.43;;;;;;;;;;4978932;28;20023;-75
2022/09/01 14:34:01;;;;;;;6.38;4.15;;;;;;;;;;4980219;28;20030;-76
2022/09/01 14:36:27;;;;;;;6.18;4.38;;;;;;;;;;4985028;28;20026;-86
2022/09/01 14:38:54;;;;;;;7.25;4.47;;;;;;;;;;4973471;28;20039;-82
2022/09/01 14:41:21;;;;;;;5.88;4.30;;;;;;;;;;4972144;28;20031;-81
2022/09/01 14:43:48;;;;;;;7.93;4.70;;;;;;;;;;4971834;28;20449;-73
2022/09/01 14:46:15;;;;;;;6.40;4.00;;;;;;;;;;4973709;28;20041;-77
2022/09/01 14:48:42;;;;;;;5.97;4.50;;;;;;;;;;4971572;28;20432;-79
2022/09/01 14:51:08;;;;;;;11.88;4.65;;;;;;;;;;4979267;28;20035;-82
2022/09/01 14:53:35;;;;;;;5.95;4.07;;;;;;;;;;4976137;28;20030;-86
2022/09/01 14:56:01;;;;;;;6.82;4.15;;;;;;;;;;4970660;28;20026;-84
2022/09/01 14:58:28;;;;;;;59.75;42.13;;;;;;;;;;4957564;28;20027;-85